sensor_id;sensor_type;location;lat;lon;timestamp;P1;durP1;ratioP1;P2;durP2;ratioP2
28802;SDS011;15949;55.656;37.422;2022-12-22T00:02:58;2.90;;;2.47;;
28802;SDS011;15949;55.656;37.422;2022-12-22T00:08:22;3.45;;;2.33;;
28802;SDS011;15949;55.656;37.422;2022-12-22T00:13:46;4.13;;;2.40;;
28802;SDS011;15949;55.656;37.422;2022-12-22T00:19:12;3.17;;;2.55;;
28802;SDS011;15949;55.656;37.422;2022-12-22T00:24:36;3.00;;;2.10;;
28802;SDS011;15949;55.656;37.422;2022-12-22T00:30:00;2.70;;;2.50;;
28802;SDS011;15949;55.656;37.422;2022-12-22T00:35:26;3.40;;;2.08;;
28802;SDS011;15949;55.656;37.422;2022-12-22T00:40:50;3.55;;;1.98;;
28802;SDS011;15949;55.656;37.422;2022-12-22T00:46:14;2.42;;;2.00;;
28802;SDS011;15949;55.656;37.422;2022-12-22T00:51:40;3.53;;;1.80;;
28802;SDS011;15949;55.656;37.422;2022-12-22T00:57:04;1.95;;;1.58;;
28802;SDS011;15949;55.656;37.422;2022-12-22T01:02:29;2.00;;;1.60;;
28802;SDS011;15949;55.656;37.422;2022-12-22T01:07:53;1.85;;;1.42;;
28802;SDS011;15949;55.656;37.422;2022-12-22T01:13:18;1.50;;;1.40;;
28802;SDS011;15949;55.656;37.422;2022-12-22T01:18:42;4.13;;;1.70;;
28802;SDS011;15949;55.656;37.422;2022-12-22T01:24:13;1.83;;;1.58;;
28802;SDS011;15949;55.656;37.422;2022-12-22T01:29:39;2.17;;;1.67;;
28802;SDS011;15949;55.656;37.422;2022-12-22T01:35:03;1.98;;;1.73;;
28802;SDS011;15949;55.656;37.422;2022-12-22T01:40:28;3.42;;;1.67;;
28802;SDS011;15949;55.656;37.422;2022-12-22T01:45:52;2.08;;;1.80;;
28802;SDS011;15949;55.656;37.422;2022-12-22T01:51:21;5.47;;;2.08;;
28802;SDS011;15949;55.656;37.422;2022-12-22T01:56:49;3.10;;;2.00;;
28802;SDS011;15949;55.656;37.422;2022-12-22T02:02:14;2.78;;;2.53;;
28802;SDS011;15949;55.656;37.422;2022-12-22T02:13:51;4.07;;;3.05;;
28802;SDS011;15949;55.656;37.422;2022-12-22T02:25:18;3.22;;;2.90;;
28802;SDS011;15949;55.656;37.422;2022-12-22T02:31:05;5.00;;;3.65;;
28802;SDS011;15949;55.656;37.422;2022-12-22T02:47:56;5.70;;;3.75;;
28802;SDS011;15949;55.656;37.422;2022-12-22T02:58:51;6.72;;;4.20;;
28802;SDS011;15949;55.656;37.422;2022-12-22T03:04:16;5.15;;;4.65;;
28802;SDS011;15949;55.656;37.422;2022-12-22T03:09:40;5.03;;;4.18;;
28802;SDS011;15949;55.656;37.422;2022-12-22T03:15:04;5.63;;;4.68;;
28802;SDS011;15949;55.656;37.422;2022-12-22T03:20:28;6.00;;;5.03;;
28802;SDS011;15949;55.656;37.422;2022-12-22T03:25:52;6.95;;;5.30;;
28802;SDS011;15949;55.656;37.422;2022-12-22T03:31:03;7.07;;;5.82;;
28802;SDS011;15949;55.656;37.422;2022-12-22T03:36:10;9.35;;;5.93;;
28802;SDS011;15949;55.656;37.422;2022-12-22T03:41:15;8.77;;;7.07;;
28802;SDS011;15949;55.656;37.422;2022-12-22T03:46:39;8.32;;;7.05;;
28802;SDS011;15949;55.656;37.422;2022-12-22T03:51:46;11.10;;;6.85;;
28802;SDS011;15949;55.656;37.422;2022-12-22T03:56:53;10.05;;;7.25;;
28802;SDS011;15949;55.656;37.422;2022-12-22T04:01:58;8.23;;;6.88;;
28802;SDS011;15949;55.656;37.422;2022-12-22T04:07:04;12.95;;;7.70;;
28802;SDS011;15949;55.656;37.422;2022-12-22T04:12:10;10.20;;;7.78;;
28802;SDS011;15949;55.656;37.422;2022-12-22T04:17:34;10.95;;;8.55;;
28802;SDS011;15949;55.656;37.422;2022-12-22T04:22:39;11.48;;;8.93;;
28802;SDS011;15949;55.656;37.422;2022-12-22T04:27:45;12.77;;;9.45;;
28802;SDS011;15949;55.656;37.422;2022-12-22T04:32:50;13.25;;;9.73;;
28802;SDS011;15949;55.656;37.422;2022-12-22T04:37:56;12.05;;;9.77;;
28802;SDS011;15949;55.656;37.422;2022-12-22T04:43:01;12.70;;;9.45;;
28802;SDS011;15949;55.656;37.422;2022-12-22T04:48:07;14.52;;;10.38;;
28802;SDS011;15949;55.656;37.422;2022-12-22T04:53:13;15.65;;;10.35;;
28802;SDS011;15949;55.656;37.422;2022-12-22T04:58:18;12.95;;;9.73;;
28802;SDS011;15949;55.656;37.422;2022-12-22T05:03:24;14.88;;;11.40;;
28802;SDS011;15949;55.656;37.422;2022-12-22T05:08:30;13.32;;;10.48;;
28802;SDS011;15949;55.656;37.422;2022-12-22T05:13:35;14.50;;;10.98;;
28802;SDS011;15949;55.656;37.422;2022-12-22T05:18:41;16.63;;;12.00;;
28802;SDS011;15949;55.656;37.422;2022-12-22T05:23:48;17.95;;;12.20;;
28802;SDS011;15949;55.656;37.422;2022-12-22T05:28:54;17.58;;;12.75;;
28802;SDS011;15949;55.656;37.422;2022-12-22T05:34:00;16.63;;;12.45;;
28802;SDS011;15949;55.656;37.422;2022-12-22T05:39:05;16.42;;;12.73;;
28802;SDS011;15949;55.656;37.422;2022-12-22T05:44:11;20.48;;;13.23;;
28802;SDS011;15949;55.656;37.422;2022-12-22T05:49:17;21.15;;;13.77;;
28802;SDS011;15949;55.656;37.422;2022-12-22T05:54:23;18.25;;;13.90;;
28802;SDS011;15949;55.656;37.422;2022-12-22T05:59:29;20.25;;;14.90;;
28802;SDS011;15949;55.656;37.422;2022-12-22T06:04:34;21.92;;;15.55;;
28802;SDS011;15949;55.656;37.422;2022-12-22T06:09:40;20.70;;;15.40;;
28802;SDS011;15949;55.656;37.422;2022-12-22T06:14:46;19.67;;;14.63;;
28802;SDS011;15949;55.656;37.422;2022-12-22T06:19:51;21.02;;;15.23;;
28802;SDS011;15949;55.656;37.422;2022-12-22T06:24:57;20.33;;;15.93;;
28802;SDS011;15949;55.656;37.422;2022-12-22T06:30:03;27.13;;;17.05;;
28802;SDS011;15949;55.656;37.422;2022-12-22T06:35:09;24.02;;;16.38;;
28802;SDS011;15949;55.656;37.422;2022-12-22T06:40:14;24.02;;;16.40;;
28802;SDS011;15949;55.656;37.422;2022-12-22T06:45:20;22.95;;;15.77;;
28802;SDS011;15949;55.656;37.422;2022-12-22T06:50:26;23.33;;;15.77;;
28802;SDS011;15949;55.656;37.422;2022-12-22T06:55:31;21.17;;;15.95;;
28802;SDS011;15949;55.656;37.422;2022-12-22T07:00:37;21.92;;;15.75;;
28802;SDS011;15949;55.656;37.422;2022-12-22T07:05:42;20.83;;;14.48;;
28802;SDS011;15949;55.656;37.422;2022-12-22T07:10:48;20.20;;;14.38;;
28802;SDS011;15949;55.656;37.422;2022-12-22T07:16:04;21.77;;;15.80;;
28802;SDS011;15949;55.656;37.422;2022-12-22T07:21:12;24.00;;;15.88;;
28802;SDS011;15949;55.656;37.422;2022-12-22T07:26:18;22.33;;;14.77;;
28802;SDS011;15949;55.656;37.422;2022-12-22T07:31:24;22.45;;;14.75;;
28802;SDS011;15949;55.656;37.422;2022-12-22T07:36:29;23.35;;;15.70;;
28802;SDS011;15949;55.656;37.422;2022-12-22T07:41:35;21.98;;;15.77;;
28802;SDS011;15949;55.656;37.422;2022-12-22T07:46:59;24.15;;;16.90;;
28802;SDS011;15949;55.656;37.422;2022-12-22T07:52:05;22.85;;;16.20;;
28802;SDS011;15949;55.656;37.422;2022-12-22T07:57:10;24.23;;;16.10;;
28802;SDS011;15949;55.656;37.422;2022-12-22T08:02:16;26.35;;;15.60;;
28802;SDS011;15949;55.656;37.422;2022-12-22T08:07:21;24.52;;;16.50;;
28802;SDS011;15949;55.656;37.422;2022-12-22T08:12:27;24.73;;;16.63;;
28802;SDS011;15949;55.656;37.422;2022-12-22T08:17:34;29.67;;;16.30;;
28802;SDS011;15949;55.656;37.422;2022-12-22T08:22:40;21.92;;;16.17;;
28802;SDS011;15949;55.656;37.422;2022-12-22T08:27:50;31.00;;;17.27;;
28802;SDS011;15949;55.656;37.422;2022-12-22T08:32:58;27.73;;;18.02;;
28802;SDS011;15949;55.656;37.422;2022-12-22T08:38:03;23.70;;;16.90;;
28802;SDS011;15949;55.656;37.422;2022-12-22T08:43:10;26.98;;;18.00;;
28802;SDS011;15949;55.656;37.422;2022-12-22T08:48:16;24.98;;;17.00;;
28802;SDS011;15949;55.656;37.422;2022-12-22T08:53:21;25.58;;;18.33;;
28802;SDS011;15949;55.656;37.422;2022-12-22T08:58:27;27.10;;;19.23;;
28802;SDS011;15949;55.656;37.422;2022-12-22T09:03:32;25.52;;;18.85;;
28802;SDS011;15949;55.656;37.422;2022-12-22T09:08:38;29.15;;;19.05;;
28802;SDS011;15949;55.656;37.422;2022-12-22T09:13:43;28.30;;;19.40;;
28802;SDS011;15949;55.656;37.422;2022-12-22T09:18:49;28.75;;;19.50;;
28802;SDS011;15949;55.656;37.422;2022-12-22T09:23:55;30.25;;;20.17;;
28802;SDS011;15949;55.656;37.422;2022-12-22T09:29:01;28.15;;;19.50;;
28802;SDS011;15949;55.656;37.422;2022-12-22T09:34:07;29.88;;;19.90;;
28802;SDS011;15949;55.656;37.422;2022-12-22T09:39:13;31.48;;;19.67;;
28802;SDS011;15949;55.656;37.422;2022-12-22T09:49:37;32.58;;;20.42;;
28802;SDS011;15949;55.656;37.422;2022-12-22T09:54:42;33.53;;;20.23;;
28802;SDS011;15949;55.656;37.422;2022-12-22T09:59:48;32.47;;;20.25;;
28802;SDS011;15949;55.656;37.422;2022-12-22T10:05:05;33.50;;;20.80;;
28802;SDS011;15949;55.656;37.422;2022-12-22T10:10:23;35.70;;;20.92;;
28802;SDS011;15949;55.656;37.422;2022-12-22T10:15:36;33.25;;;20.95;;
28802;SDS011;15949;55.656;37.422;2022-12-22T10:20:45;33.45;;;20.35;;
28802;SDS011;15949;55.656;37.422;2022-12-22T10:26:23;36.15;;;21.60;;
28802;SDS011;15949;55.656;37.422;2022-12-22T10:31:32;42.55;;;23.00;;
28802;SDS011;15949;55.656;37.422;2022-12-22T10:36:39;36.17;;;22.02;;
28802;SDS011;15949;55.656;37.422;2022-12-22T10:41:58;36.95;;;23.48;;
28802;SDS011;15949;55.656;37.422;2022-12-22T10:47:13;40.05;;;24.30;;
28802;SDS011;15949;55.656;37.422;2022-12-22T10:52:27;45.85;;;24.55;;
28802;SDS011;15949;55.656;37.422;2022-12-22T10:57:34;43.15;;;23.80;;
28802;SDS011;15949;55.656;37.422;2022-12-22T11:02:39;42.35;;;25.05;;
28802;SDS011;15949;55.656;37.422;2022-12-22T11:07:54;41.65;;;24.63;;
28802;SDS011;15949;55.656;37.422;2022-12-22T11:19:03;45.17;;;25.33;;
28802;SDS011;15949;55.656;37.422;2022-12-22T11:30:08;54.08;;;27.30;;
28802;SDS011;15949;55.656;37.422;2022-12-22T12:02:39;50.53;;;26.08;;
28802;SDS011;15949;55.656;37.422;2022-12-22T12:13:32;44.35;;;25.17;;
28802;SDS011;15949;55.656;37.422;2022-12-22T12:29:51;39.58;;;22.25;;
28802;SDS011;15949;55.656;37.422;2022-12-22T12:45:52;50.10;;;24.33;;
28802;SDS011;15949;55.656;37.422;2022-12-22T12:50:59;53.80;;;26.10;;
28802;SDS011;15949;55.656;37.422;2022-12-22T12:56:05;45.17;;;24.02;;
28802;SDS011;15949;55.656;37.422;2022-12-22T13:17:53;43.88;;;23.42;;
28802;SDS011;15949;55.656;37.422;2022-12-22T13:22:59;39.83;;;21.60;;
28802;SDS011;15949;55.656;37.422;2022-12-22T13:28:14;41.43;;;22.23;;
28802;SDS011;15949;55.656;37.422;2022-12-22T13:33:23;40.00;;;22.50;;
28802;SDS011;15949;55.656;37.422;2022-12-22T13:38:35;43.55;;;24.00;;
28802;SDS011;15949;55.656;37.422;2022-12-22T13:43:42;38.78;;;21.92;;
28802;SDS011;15949;55.656;37.422;2022-12-22T13:48:53;39.25;;;22.27;;
28802;SDS011;15949;55.656;37.422;2022-12-22T13:59:58;43.55;;;22.92;;
28802;SDS011;15949;55.656;37.422;2022-12-22T14:05:05;41.13;;;23.85;;
28802;SDS011;15949;55.656;37.422;2022-12-22T14:10:14;40.17;;;23.10;;
28802;SDS011;15949;55.656;37.422;2022-12-22T14:15:31;36.85;;;20.15;;
28802;SDS011;15949;55.656;37.422;2022-12-22T14:20:37;34.55;;;21.10;;
28802;SDS011;15949;55.656;37.422;2022-12-22T14:25:44;37.35;;;20.65;;
28802;SDS011;15949;55.656;37.422;2022-12-22T14:30:55;32.20;;;20.25;;
28802;SDS011;15949;55.656;37.422;2022-12-22T14:36:58;36.45;;;20.38;;
28802;SDS011;15949;55.656;37.422;2022-12-22T14:42:59;32.05;;;18.48;;
28802;SDS011;15949;55.656;37.422;2022-12-22T14:48:57;40.40;;;22.42;;
28802;SDS011;15949;55.656;37.422;2022-12-22T14:54:56;47.15;;;24.10;;
28802;SDS011;15949;55.656;37.422;2022-12-22T15:01:12;45.55;;;24.67;;
28802;SDS011;15949;55.656;37.422;2022-12-22T15:07:29;40.28;;;22.77;;
28802;SDS011;15949;55.656;37.422;2022-12-22T15:14:02;40.30;;;22.58;;
28802;SDS011;15949;55.656;37.422;2022-12-22T15:20:00;43.25;;;22.88;;
28802;SDS011;15949;55.656;37.422;2022-12-22T15:25:59;44.42;;;24.15;;
28802;SDS011;15949;55.656;37.422;2022-12-22T15:31:57;43.95;;;23.65;;
28802;SDS011;15949;55.656;37.422;2022-12-22T15:37:56;43.63;;;23.58;;
28802;SDS011;15949;55.656;37.422;2022-12-22T15:43:55;39.08;;;21.98;;
28802;SDS011;15949;55.656;37.422;2022-12-22T15:49:53;40.53;;;22.83;;
28802;SDS011;15949;55.656;37.422;2022-12-22T15:55:52;43.90;;;23.58;;
28802;SDS011;15949;55.656;37.422;2022-12-22T16:01:51;39.15;;;22.83;;
28802;SDS011;15949;55.656;37.422;2022-12-22T16:07:49;40.35;;;23.48;;
28802;SDS011;15949;55.656;37.422;2022-12-22T16:13:49;41.80;;;24.37;;
28802;SDS011;15949;55.656;37.422;2022-12-22T16:19:50;45.30;;;23.38;;
28802;SDS011;15949;55.656;37.422;2022-12-22T16:25:48;42.25;;;22.52;;
28802;SDS011;15949;55.656;37.422;2022-12-22T16:31:47;52.38;;;26.90;;
28802;SDS011;15949;55.656;37.422;2022-12-22T16:37:46;42.10;;;23.90;;
28802;SDS011;15949;55.656;37.422;2022-12-22T16:43:35;43.45;;;23.45;;
28802;SDS011;15949;55.656;37.422;2022-12-22T16:49:02;45.28;;;24.92;;
28802;SDS011;15949;55.656;37.422;2022-12-22T16:55:13;42.83;;;24.52;;
28802;SDS011;15949;55.656;37.422;2022-12-22T17:06:58;48.17;;;24.98;;
28802;SDS011;15949;55.656;37.422;2022-12-22T17:12:04;43.00;;;25.38;;
28802;SDS011;15949;55.656;37.422;2022-12-22T17:18:35;54.95;;;30.67;;
28802;SDS011;15949;55.656;37.422;2022-12-22T17:23:45;47.10;;;26.67;;
28802;SDS011;15949;55.656;37.422;2022-12-22T17:28:51;45.55;;;25.40;;
28802;SDS011;15949;55.656;37.422;2022-12-22T17:33:57;45.72;;;26.05;;
28802;SDS011;15949;55.656;37.422;2022-12-22T17:39:02;47.47;;;24.65;;
28802;SDS011;15949;55.656;37.422;2022-12-22T17:44:18;50.88;;;25.25;;
28802;SDS011;15949;55.656;37.422;2022-12-22T17:49:24;47.58;;;24.52;;
28802;SDS011;15949;55.656;37.422;2022-12-22T17:54:29;45.53;;;25.95;;
28802;SDS011;15949;55.656;37.422;2022-12-22T17:59:35;56.97;;;29.17;;
28802;SDS011;15949;55.656;37.422;2022-12-22T18:04:41;52.80;;;28.08;;
28802;SDS011;15949;55.656;37.422;2022-12-22T18:09:46;48.22;;;26.63;;
28802;SDS011;15949;55.656;37.422;2022-12-22T18:14:53;56.03;;;28.30;;
28802;SDS011;15949;55.656;37.422;2022-12-22T18:19:58;60.50;;;32.35;;
28802;SDS011;15949;55.656;37.422;2022-12-22T18:25:25;56.97;;;32.22;;
28802;SDS011;15949;55.656;37.422;2022-12-22T18:30:29;53.65;;;30.10;;
28802;SDS011;15949;55.656;37.422;2022-12-22T18:35:36;49.47;;;28.65;;
28802;SDS011;15949;55.656;37.422;2022-12-22T18:40:42;47.15;;;28.00;;
28802;SDS011;15949;55.656;37.422;2022-12-22T18:45:47;48.75;;;26.75;;
28802;SDS011;15949;55.656;37.422;2022-12-22T18:50:53;45.63;;;26.33;;
28802;SDS011;15949;55.656;37.422;2022-12-22T18:55:58;46.63;;;26.00;;
28802;SDS011;15949;55.656;37.422;2022-12-22T19:01:04;52.28;;;28.02;;
28802;SDS011;15949;55.656;37.422;2022-12-22T19:06:09;46.33;;;26.67;;
28802;SDS011;15949;55.656;37.422;2022-12-22T19:11:15;47.83;;;27.48;;
28802;SDS011;15949;55.656;37.422;2022-12-22T19:16:23;49.15;;;27.52;;
28802;SDS011;15949;55.656;37.422;2022-12-22T19:21:29;56.25;;;28.90;;
28802;SDS011;15949;55.656;37.422;2022-12-22T19:26:35;56.92;;;28.13;;
28802;SDS011;15949;55.656;37.422;2022-12-22T19:31:40;54.60;;;28.63;;
28802;SDS011;15949;55.656;37.422;2022-12-22T19:36:47;61.30;;;28.77;;
28802;SDS011;15949;55.656;37.422;2022-12-22T19:41:52;65.32;;;29.65;;
28802;SDS011;15949;55.656;37.422;2022-12-22T19:46:58;59.45;;;27.05;;
28802;SDS011;15949;55.656;37.422;2022-12-22T19:52:04;56.67;;;27.92;;
28802;SDS011;15949;55.656;37.422;2022-12-22T19:57:13;58.10;;;27.63;;
28802;SDS011;15949;55.656;37.422;2022-12-22T20:07:26;60.03;;;28.23;;
28802;SDS011;15949;55.656;37.422;2022-12-22T20:12:32;60.85;;;27.38;;
28802;SDS011;15949;55.656;37.422;2022-12-22T20:17:38;60.53;;;27.80;;
28802;SDS011;15949;55.656;37.422;2022-12-22T20:22:50;56.30;;;27.55;;
28802;SDS011;15949;55.656;37.422;2022-12-22T20:27:56;56.20;;;27.05;;
28802;SDS011;15949;55.656;37.422;2022-12-22T20:33:01;55.47;;;26.88;;
28802;SDS011;15949;55.656;37.422;2022-12-22T20:38:18;58.63;;;27.27;;
28802;SDS011;15949;55.656;37.422;2022-12-22T20:43:24;58.25;;;26.75;;
28802;SDS011;15949;55.656;37.422;2022-12-22T20:48:31;47.85;;;25.45;;
28802;SDS011;15949;55.656;37.422;2022-12-22T20:53:37;51.38;;;24.98;;
28802;SDS011;15949;55.656;37.422;2022-12-22T20:58:43;48.67;;;25.17;;
28802;SDS011;15949;55.656;37.422;2022-12-22T21:03:48;55.45;;;25.65;;
28802;SDS011;15949;55.656;37.422;2022-12-22T21:08:55;53.38;;;26.08;;
28802;SDS011;15949;55.656;37.422;2022-12-22T21:14:01;47.50;;;24.05;;
28802;SDS011;15949;55.656;37.422;2022-12-22T21:19:06;46.75;;;24.33;;
28802;SDS011;15949;55.656;37.422;2022-12-22T21:24:12;43.17;;;23.85;;
28802;SDS011;15949;55.656;37.422;2022-12-22T21:29:19;40.28;;;22.52;;
28802;SDS011;15949;55.656;37.422;2022-12-22T21:34:25;40.20;;;20.58;;
28802;SDS011;15949;55.656;37.422;2022-12-22T21:39:35;45.63;;;22.50;;
28802;SDS011;15949;55.656;37.422;2022-12-22T21:44:43;44.50;;;22.85;;
28802;SDS011;15949;55.656;37.422;2022-12-22T21:49:51;41.55;;;22.45;;
28802;SDS011;15949;55.656;37.422;2022-12-22T21:54:56;38.65;;;21.15;;
28802;SDS011;15949;55.656;37.422;2022-12-22T22:00:02;39.70;;;22.05;;
28802;SDS011;15949;55.656;37.422;2022-12-22T22:05:13;37.78;;;20.52;;
28802;SDS011;15949;55.656;37.422;2022-12-22T22:10:26;39.90;;;20.38;;
28802;SDS011;15949;55.656;37.422;2022-12-22T22:15:32;41.58;;;21.35;;
28802;SDS011;15949;55.656;37.422;2022-12-22T22:20:37;40.90;;;20.75;;
28802;SDS011;15949;55.656;37.422;2022-12-22T22:25:45;45.22;;;21.55;;
28802;SDS011;15949;55.656;37.422;2022-12-22T22:30:50;40.72;;;20.88;;
28802;SDS011;15949;55.656;37.422;2022-12-22T22:35:56;40.65;;;21.65;;
28802;SDS011;15949;55.656;37.422;2022-12-22T22:41:01;37.05;;;20.20;;
28802;SDS011;15949;55.656;37.422;2022-12-22T22:46:07;31.85;;;18.73;;
28802;SDS011;15949;55.656;37.422;2022-12-22T22:51:12;32.05;;;18.38;;
28802;SDS011;15949;55.656;37.422;2022-12-22T22:56:17;33.22;;;18.70;;
28802;SDS011;15949;55.656;37.422;2022-12-22T23:01:23;35.08;;;20.10;;
28802;SDS011;15949;55.656;37.422;2022-12-22T23:06:28;37.65;;;20.25;;
28802;SDS011;15949;55.656;37.422;2022-12-22T23:11:34;36.97;;;20.45;;
28802;SDS011;15949;55.656;37.422;2022-12-22T23:16:39;40.13;;;22.63;;
28802;SDS011;15949;55.656;37.422;2022-12-22T23:21:45;46.00;;;23.65;;
28802;SDS011;15949;55.656;37.422;2022-12-22T23:26:50;48.50;;;23.63;;
28802;SDS011;15949;55.656;37.422;2022-12-22T23:31:55;52.78;;;24.23;;
28802;SDS011;15949;55.656;37.422;2022-12-22T23:37:01;63.08;;;25.33;;
28802;SDS011;15949;55.656;37.422;2022-12-22T23:42:07;62.65;;;24.73;;
28802;SDS011;15949;55.656;37.422;2022-12-22T23:47:12;50.67;;;24.98;;
28802;SDS011;15949;55.656;37.422;2022-12-22T23:52:18;51.15;;;24.00;;
28802;SDS011;15949;55.656;37.422;2022-12-22T23:57:23;64.53;;;26.52;;
